createdAt,value
2022-09-10T00:01:36.605Z,17.75
2022-09-10T00:04:13.630Z,17.74
2022-09-10T00:06:43.805Z,17.76
2022-09-10T00:09:13.894Z,17.76
2022-09-10T00:11:43.297Z,17.75
2022-09-10T00:14:15.706Z,17.75
2022-09-10T00:16:44.857Z,17.77
2022-09-10T00:19:13.475Z,17.79
2022-09-10T00:21:41.414Z,17.81
2022-09-10T00:24:09.424Z,17.82
2022-09-10T00:26:39.473Z,17.82
2022-09-10T00:29:11.067Z,17.83
2022-09-10T00:31:40.185Z,17.86
2022-09-10T00:34:09.304Z,17.87
2022-09-10T00:36:41.227Z,17.87
2022-09-10T00:39:12.761Z,17.83
2022-09-10T00:41:43.274Z,17.78
2022-09-10T00:44:42.980Z,17.75
2022-09-10T00:47:23.742Z,17.72
2022-09-10T00:50:01.687Z,17.72
2022-09-10T00:52:30.079Z,17.74
2022-09-10T00:54:59.575Z,17.75
2022-09-10T00:57:29.306Z,17.76
2022-09-10T01:00:05.228Z,17.77
2022-09-10T01:02:33.328Z,17.76
2022-09-10T01:05:04.037Z,17.75
2022-09-10T01:07:33.844Z,17.72
2022-09-10T01:10:12.715Z,17.71
2022-09-10T01:12:59.561Z,17.73
2022-09-10T01:15:36.372Z,17.77
2022-09-10T01:18:16.516Z,17.78
2022-09-10T01:20:59.858Z,17.77
2022-09-10T01:23:50.647Z,17.75
2022-09-10T01:26:33.662Z,17.72
2022-09-10T01:29:24.103Z,17.67
2022-09-10T01:32:06.998Z,17.68
2022-09-10T01:34:44.205Z,17.72
2022-09-10T01:37:21.883Z,17.71
2022-09-10T01:39:52.733Z,17.67
2022-09-10T01:42:32.429Z,17.63
2022-09-10T01:45:01.324Z,17.60
2022-09-10T01:47:57.949Z,17.60
2022-09-10T01:50:51.248Z,17.60
2022-09-10T01:53:51.311Z,17.60
2022-09-10T01:56:35.757Z,17.61
2022-09-10T01:59:21.932Z,17.61
2022-09-10T02:02:01.433Z,17.64
2022-09-10T02:04:30.846Z,17.66
2022-09-10T02:07:00.194Z,17.68
2022-09-10T02:09:28.285Z,17.66
2022-09-10T02:11:56.374Z,17.65
2022-09-10T02:14:40.567Z,17.65
2022-09-10T02:17:31.348Z,17.61
2022-09-10T02:20:04.561Z,17.59
2022-09-10T02:22:36.299Z,17.56
2022-09-10T02:25:05.381Z,17.54
2022-09-10T02:27:34.025Z,17.52
2022-09-10T02:30:02.083Z,17.53
2022-09-10T02:32:30.769Z,17.55
2022-09-10T02:34:58.814Z,17.56
2022-09-10T02:37:28.965Z,17.56
2022-09-10T02:39:57.004Z,17.57
2022-09-10T02:42:25.601Z,17.58
2022-09-10T02:44:54.153Z,17.57
2022-09-10T02:47:22.220Z,17.56
2022-09-10T02:49:50.189Z,17.57
2022-09-10T02:52:18.119Z,17.57
2022-09-10T02:54:46.506Z,17.57
2022-09-10T02:57:14.623Z,17.55
2022-09-10T02:59:43.890Z,17.52
2022-09-10T03:02:12.664Z,17.52
2022-09-10T03:04:40.669Z,17.53
2022-09-10T03:07:09.054Z,17.55
2022-09-10T03:09:37.186Z,17.57
2022-09-10T03:12:07.975Z,17.57
2022-09-10T03:14:35.890Z,17.58
2022-09-10T03:17:04.028Z,17.58
2022-09-10T03:19:32.007Z,17.58
2022-09-10T03:22:00.221Z,17.56
2022-09-10T03:24:28.706Z,17.53
2022-09-10T03:26:57.219Z,17.51
2022-09-10T03:29:25.828Z,17.50
2022-09-10T03:31:54.952Z,17.47
2022-09-10T03:34:23.400Z,17.44
2022-09-10T03:36:51.509Z,17.41
2022-09-10T03:39:20.508Z,17.38
2022-09-10T03:41:48.424Z,17.35
2022-09-10T03:44:17.437Z,17.34
2022-09-10T03:46:48.308Z,17.32
2022-09-10T03:49:17.805Z,17.28
2022-09-10T03:51:45.780Z,17.28
2022-09-10T03:54:15.181Z,17.30
2022-09-10T03:56:44.427Z,17.34
2022-09-10T03:59:17.376Z,17.35
2022-09-10T04:01:45.873Z,17.35
2022-09-10T04:04:15.188Z,17.34
2022-09-10T04:06:44.660Z,17.31
2022-09-10T04:09:13.257Z,17.29
2022-09-10T04:11:42.440Z,17.31
2022-09-10T04:14:10.956Z,17.32
2022-09-10T04:16:41.875Z,17.34
2022-09-10T04:19:12.964Z,17.36
2022-09-10T04:21:41.594Z,17.39
2022-09-10T04:24:12.816Z,17.42
2022-09-10T04:26:40.740Z,17.44
2022-09-10T04:29:08.818Z,17.45
2022-09-10T04:31:36.899Z,17.46
2022-09-10T04:34:11.608Z,17.48
2022-09-10T04:36:39.698Z,17.49
2022-09-10T04:39:09.115Z,17.50
2022-09-10T04:41:37.991Z,17.53
2022-09-10T04:44:08.262Z,17.51
2022-09-10T04:46:36.580Z,17.51
2022-09-10T04:49:07.923Z,17.50
2022-09-10T04:51:35.945Z,17.51
2022-09-10T04:54:04.036Z,17.51
2022-09-10T04:56:36.535Z,17.53
2022-09-10T04:59:06.011Z,17.52
2022-09-10T05:01:38.772Z,17.52
2022-09-10T05:04:06.888Z,17.52
2022-09-10T05:06:38.136Z,17.54
2022-09-10T05:09:08.904Z,17.57
2022-09-10T05:11:37.502Z,17.58
2022-09-10T05:14:05.827Z,17.61
2022-09-10T05:16:33.866Z,17.63
2022-09-10T05:19:02.351Z,17.64
2022-09-10T05:21:33.651Z,17.65
2022-09-10T05:24:02.178Z,17.64
2022-09-10T05:26:30.845Z,17.62
2022-09-10T05:29:00.233Z,17.59
2022-09-10T05:31:28.548Z,17.55
2022-09-10T05:33:57.289Z,17.55
2022-09-10T05:36:25.459Z,17.56
2022-09-10T05:38:55.266Z,17.59
2022-09-10T05:41:23.939Z,17.61
2022-09-10T05:43:52.073Z,17.57
2022-09-10T05:46:20.241Z,17.57
2022-09-10T05:48:53.200Z,17.58
2022-09-10T05:51:22.259Z,17.61
2022-09-10T05:53:51.274Z,17.64
2022-09-10T05:56:20.674Z,17.66
2022-09-10T05:58:49.936Z,17.71
2022-09-10T06:01:19.389Z,17.76
2022-09-10T06:03:48.941Z,17.82
2022-09-10T06:06:17.626Z,17.86
2022-09-10T06:08:53.499Z,17.88
2022-09-10T06:11:28.752Z,17.91
2022-09-10T06:13:58.003Z,17.92
2022-09-10T06:16:26.140Z,17.89
2022-09-10T06:18:57.183Z,17.86
2022-09-10T06:21:30.120Z,17.88
2022-09-10T06:23:59.315Z,17.93
2022-09-10T06:26:29.403Z,17.99
2022-09-10T06:29:00.898Z,18.06
2022-09-10T06:31:29.647Z,18.11
2022-09-10T06:33:58.012Z,18.14
2022-09-10T06:36:29.608Z,18.15
2022-09-10T06:38:58.230Z,18.17
2022-09-10T06:41:27.296Z,18.17
2022-09-10T06:44:10.548Z,18.18
2022-09-10T06:49:42.036Z,18.20
2022-09-10T06:52:11.931Z,18.22
2022-09-10T06:54:40.396Z,18.24
2022-09-10T06:57:31.022Z,18.29
2022-09-10T06:59:58.958Z,18.35
2022-09-10T07:02:27.216Z,18.40
2022-09-10T07:04:55.435Z,18.47
2022-09-10T07:07:23.540Z,18.54
2022-09-10T07:09:51.997Z,18.60
2022-09-10T07:12:21.415Z,18.67
2022-09-10T07:14:50.287Z,18.73
2022-09-10T07:17:20.466Z,18.80
2022-09-10T07:19:48.896Z,18.89
2022-09-10T07:22:25.819Z,18.96
2022-09-10T07:24:54.458Z,19.06
2022-09-10T07:27:30.327Z,19.17
2022-09-10T07:29:59.431Z,19.29
2022-09-10T07:32:27.511Z,19.38
2022-09-10T07:35:07.761Z,19.44
2022-09-10T07:37:36.198Z,19.53
2022-09-10T07:40:04.782Z,19.64
2022-09-10T07:42:32.888Z,19.77
2022-09-10T07:45:00.904Z,19.85
2022-09-10T07:47:28.971Z,19.93
2022-09-10T07:49:58.074Z,19.94
2022-09-10T07:52:26.198Z,20.01
2022-09-10T07:54:56.349Z,20.13
2022-09-10T07:57:24.385Z,20.23
2022-09-10T07:59:53.934Z,20.31
2022-09-10T08:02:26.004Z,20.39
2022-09-10T08:04:58.072Z,20.51
2022-09-10T08:07:26.044Z,20.63
2022-09-10T08:09:54.086Z,20.74
2022-09-10T08:12:22.146Z,20.84
2022-09-10T08:14:50.940Z,20.95
2022-09-10T08:17:19.335Z,21.08
2022-09-10T08:19:47.579Z,21.20
2022-09-10T08:22:16.432Z,21.34
2022-09-10T08:24:48.736Z,21.47
2022-09-10T08:27:17.450Z,21.57
2022-09-10T08:29:45.822Z,21.64
2022-09-10T08:32:14.879Z,21.69
2022-09-10T08:34:43.070Z,21.78
2022-09-10T08:37:12.730Z,21.88
2022-09-10T08:39:40.719Z,21.98
2022-09-10T08:42:17.170Z,22.12
2022-09-10T08:44:50.209Z,22.25
2022-09-10T08:47:30.528Z,22.30
2022-09-10T08:50:13.932Z,22.33
2022-09-10T08:52:52.119Z,22.36
2022-09-10T08:55:31.826Z,22.36
2022-09-10T08:58:11.623Z,22.34
2022-09-10T09:00:44.761Z,22.35
2022-09-10T09:03:25.606Z,22.41
2022-09-10T09:05:58.192Z,22.51
2022-09-10T09:08:36.970Z,22.56
2022-09-10T09:11:13.135Z,22.56
2022-09-10T09:14:00.682Z,22.55
2022-09-10T09:17:05.598Z,22.54
2022-09-10T09:19:40.889Z,22.52
2022-09-10T09:22:23.127Z,22.49
2022-09-10T09:25:00.808Z,22.46
2022-09-10T09:27:36.739Z,22.48
2022-09-10T09:30:32.226Z,22.49
2022-09-10T09:33:15.107Z,22.49
2022-09-10T09:35:50.343Z,22.48
2022-09-10T09:38:26.469Z,22.44
2022-09-10T09:41:00.845Z,22.42
2022-09-10T09:43:31.571Z,22.41
2022-09-10T09:46:01.424Z,22.39
2022-09-10T09:48:42.255Z,22.39
2022-09-10T09:51:13.762Z,22.39
2022-09-10T09:53:46.300Z,22.38
2022-09-10T09:56:25.947Z,22.36
2022-09-10T09:58:53.946Z,22.39
2022-09-10T10:01:24.598Z,22.47
2022-09-10T10:04:01.878Z,22.63
2022-09-10T10:06:45.159Z,22.72
2022-09-10T10:09:22.689Z,22.76
2022-09-10T10:11:55.778Z,22.76
2022-09-10T10:14:25.793Z,22.71
2022-09-10T10:17:00.435Z,22.60
2022-09-10T10:20:11.969Z,22.50
2022-09-10T10:22:42.403Z,22.40
2022-09-10T10:25:36.650Z,22.30
2022-09-10T10:28:33.801Z,22.24
2022-09-10T10:31:04.656Z,22.21
2022-09-10T10:33:33.972Z,22.16
2022-09-10T10:36:10.185Z,22.10
2022-09-10T10:38:44.776Z,22.01
2022-09-10T10:41:41.845Z,21.95
2022-09-10T10:44:51.216Z,21.91
2022-09-10T10:47:45.021Z,21.92
2022-09-10T10:50:23.432Z,22.03
2022-09-10T10:53:18.352Z,22.10
2022-09-10T10:56:11.029Z,22.17
2022-09-10T10:59:00.865Z,22.26
2022-09-10T11:01:32.555Z,22.35
2022-09-10T11:04:24.059Z,22.37
2022-09-10T11:07:14.739Z,22.35
2022-09-10T11:09:46.162Z,22.44
2022-09-10T11:12:20.783Z,22.52
2022-09-10T11:14:53.627Z,22.57
2022-09-10T11:17:31.348Z,22.58
2022-09-10T11:20:34.538Z,22.58
2022-09-10T11:23:31.024Z,22.56
2022-09-10T11:26:23.449Z,22.49
2022-09-10T11:29:29.093Z,22.43
2022-09-10T11:32:06.386Z,22.40
2022-09-10T11:34:59.261Z,22.44
2022-09-10T11:38:01.304Z,22.46
2022-09-10T11:41:02.460Z,22.46
2022-09-10T11:43:39.930Z,22.45
2022-09-10T11:46:15.301Z,22.40
2022-09-10T11:48:54.109Z,22.32
2022-09-10T11:51:28.210Z,22.25
2022-09-10T11:53:56.741Z,22.19
2022-09-10T11:56:24.881Z,22.09
2022-09-10T11:59:14.237Z,22.00
2022-09-10T12:02:02.828Z,21.88
2022-09-10T12:05:25.983Z,21.77
2022-09-10T12:08:05.710Z,21.59
2022-09-10T12:10:56.544Z,21.46
2022-09-10T12:13:24.551Z,21.34
2022-09-10T12:16:02.685Z,21.24
2022-09-10T12:18:45.034Z,21.13
2022-09-10T12:21:32.655Z,21.04
2022-09-10T12:24:21.726Z,20.97
2022-09-10T12:26:49.847Z,20.89
2022-09-10T12:29:29.850Z,20.79
2022-09-10T12:32:09.996Z,20.63
2022-09-10T12:34:39.367Z,20.45
2022-09-10T12:37:22.694Z,20.24
2022-09-10T12:40:25.971Z,20.00
2022-09-10T12:43:20.617Z,19.66
2022-09-10T12:46:02.967Z,19.43
2022-09-10T12:48:34.904Z,19.24
2022-09-10T12:51:19.276Z,19.05
2022-09-10T12:53:47.447Z,18.91
2022-09-10T12:56:34.351Z,18.87
2022-09-10T12:59:40.146Z,18.78
2022-09-10T13:02:31.196Z,18.76
2022-09-10T13:05:09.132Z,18.73
2022-09-10T13:07:41.796Z,18.75
2022-09-10T13:10:28.786Z,18.76
2022-09-10T13:13:07.133Z,18.76
2022-09-10T13:15:39.083Z,18.75
2022-09-10T13:18:09.998Z,18.73
2022-09-10T13:20:38.247Z,18.72
2022-09-10T13:23:09.271Z,18.68
2022-09-10T13:25:46.010Z,18.66
2022-09-10T13:28:29.229Z,18.59
2022-09-10T13:31:17.235Z,18.52
2022-09-10T13:33:54.811Z,18.46
2022-09-10T13:36:53.703Z,18.43
2022-09-10T13:39:27.820Z,18.41
2022-09-10T13:42:14.103Z,18.41
2022-09-10T13:45:20.391Z,18.41
2022-09-10T13:48:01.418Z,18.43
2022-09-10T13:50:41.666Z,18.46
2022-09-10T13:53:14.557Z,18.49
2022-09-10T13:56:00.006Z,18.52
2022-09-10T13:58:35.341Z,18.54
2022-09-10T14:01:05.360Z,18.55
2022-09-10T14:03:35.585Z,18.58
2022-09-10T14:06:10.215Z,18.61
2022-09-10T14:08:58.889Z,18.63
2022-09-10T14:11:30.665Z,18.67
2022-09-10T14:14:06.578Z,18.70
2022-09-10T14:16:43.813Z,18.75
2022-09-10T14:19:27.868Z,18.83
2022-09-10T14:21:57.905Z,18.94
2022-09-10T14:24:31.952Z,19.05
2022-09-10T14:27:18.706Z,19.11
2022-09-10T14:29:46.965Z,19.15
2022-09-10T14:32:29.028Z,19.20
2022-09-10T14:34:57.407Z,19.23
2022-09-10T14:37:38.249Z,19.26
2022-09-10T14:40:18.080Z,19.26
2022-09-10T14:42:48.284Z,19.26
2022-09-10T14:45:55.520Z,19.28
2022-09-10T14:48:37.094Z,19.29
2022-09-10T14:51:12.466Z,19.29
2022-09-10T14:53:41.902Z,19.26
2022-09-10T14:56:23.510Z,19.20
2022-09-10T14:59:00.782Z,19.16
2022-09-10T15:01:30.072Z,19.12
2022-09-10T15:04:01.839Z,19.11
2022-09-10T15:06:31.920Z,19.12
2022-09-10T15:09:00.777Z,19.11
2022-09-10T15:11:29.384Z,19.08
2022-09-10T15:13:59.434Z,19.05
2022-09-10T15:16:27.735Z,19.04
2022-09-10T15:18:56.078Z,19.02
2022-09-10T15:21:24.251Z,18.97
2022-09-10T15:23:52.288Z,18.94
2022-09-10T15:26:20.273Z,18.87
2022-09-10T15:28:48.260Z,18.82
2022-09-10T15:31:18.370Z,18.82
2022-09-10T15:33:46.794Z,18.81
2022-09-10T15:36:15.051Z,18.78
2022-09-10T15:38:43.508Z,18.74
2022-09-10T15:41:13.837Z,18.71
2022-09-10T15:43:43.806Z,18.71
2022-09-10T15:46:14.464Z,18.73
2022-09-10T15:48:43.570Z,18.77
2022-09-10T15:51:21.473Z,18.73
2022-09-10T15:53:52.495Z,18.69
2022-09-10T15:56:22.138Z,18.66
2022-09-10T15:58:52.436Z,18.66
2022-09-10T16:01:22.278Z,18.69
2022-09-10T16:03:54.829Z,18.71
2022-09-10T16:06:25.494Z,18.74
2022-09-10T16:09:02.167Z,18.76
2022-09-10T16:11:33.336Z,18.78
2022-09-10T16:14:04.647Z,18.74
2022-09-10T16:16:34.882Z,18.71
2022-09-10T16:19:04.274Z,18.69
2022-09-10T16:21:36.600Z,18.67
2022-09-10T16:24:06.151Z,18.63
2022-09-10T16:26:37.789Z,18.59
2022-09-10T16:29:12.606Z,18.57
2022-09-10T16:31:41.100Z,18.54
2022-09-10T16:34:12.137Z,18.50
2022-09-10T16:36:40.358Z,18.44
2022-09-10T16:39:15.648Z,18.35
2022-09-10T16:41:46.172Z,18.26
2022-09-10T16:44:16.252Z,18.18
2022-09-10T16:46:46.306Z,18.12
2022-09-10T16:49:18.034Z,18.06
2022-09-10T16:51:49.245Z,18.02
2022-09-10T16:54:21.509Z,17.97
2022-09-10T16:56:50.566Z,17.95
2022-09-10T16:59:23.857Z,17.93
2022-09-10T17:01:55.112Z,17.87
2022-09-10T17:04:28.819Z,17.83
2022-09-10T17:06:57.794Z,17.80
2022-09-10T17:09:26.288Z,17.77
2022-09-10T17:11:54.558Z,17.71
2022-09-10T17:14:22.727Z,17.63
2022-09-10T17:16:50.756Z,17.58
2022-09-10T17:19:23.754Z,17.57
2022-09-10T17:21:55.761Z,17.58
2022-09-10T17:24:26.003Z,17.59
2022-09-10T17:26:55.449Z,17.58
2022-09-10T17:29:25.996Z,17.58
2022-09-10T17:31:57.969Z,17.59
2022-09-10T17:34:27.276Z,17.59
2022-09-10T17:36:56.208Z,17.61
2022-09-10T17:39:28.342Z,17.64
2022-09-10T17:41:56.846Z,17.67
2022-09-10T17:44:25.843Z,17.67
2022-09-10T17:46:56.658Z,17.68
2022-09-10T17:49:24.782Z,17.67
2022-09-10T17:51:53.466Z,17.64
2022-09-10T17:54:21.583Z,17.62
2022-09-10T17:56:49.989Z,17.60
2022-09-10T17:59:18.722Z,17.60
2022-09-10T18:01:46.739Z,17.60
2022-09-10T18:04:15.762Z,17.58
2022-09-10T18:06:47.815Z,17.57
2022-09-10T18:09:18.877Z,17.57
2022-09-10T18:11:47.565Z,17.54
2022-09-10T18:14:18.616Z,17.50
2022-09-10T18:16:46.792Z,17.42
2022-09-10T18:19:16.977Z,17.36
2022-09-10T18:21:47.134Z,17.31
2022-09-10T18:24:22.793Z,17.29
2022-09-10T18:26:54.308Z,17.27
2022-09-10T18:29:30.463Z,17.28
2022-09-10T18:32:01.873Z,17.28
2022-09-10T18:34:31.386Z,17.29
2022-09-10T18:37:01.437Z,17.28
2022-09-10T18:39:31.713Z,17.24
2022-09-10T18:42:01.189Z,17.20
2022-09-10T18:44:33.441Z,17.19
2022-09-10T18:47:01.557Z,17.18
2022-09-10T18:49:29.890Z,17.15
2022-09-10T18:51:58.042Z,17.11
2022-09-10T18:54:29.880Z,17.08
2022-09-10T18:56:58.402Z,17.08
2022-09-10T18:59:26.817Z,17.08
2022-09-10T19:01:56.169Z,17.05
2022-09-10T19:04:29.595Z,17.02
2022-09-10T19:06:58.419Z,16.98
2022-09-10T19:09:31.612Z,16.92
2022-09-10T19:12:00.894Z,16.85
2022-09-10T19:14:33.052Z,16.79
2022-09-10T19:17:01.735Z,16.75
2022-09-10T19:19:32.941Z,16.72
2022-09-10T19:22:03.731Z,16.67
2022-09-10T19:24:53.580Z,16.61
2022-09-10T19:27:21.085Z,16.57
2022-09-10T19:29:50.046Z,16.52
2022-09-10T19:32:20.163Z,16.44
2022-09-10T19:34:52.295Z,16.37
2022-09-10T19:37:21.051Z,16.29
2022-09-10T19:39:49.250Z,16.25
2022-09-10T19:42:17.954Z,16.21
2022-09-10T19:44:46.383Z,16.17
2022-09-10T19:47:14.588Z,16.13
2022-09-10T19:49:42.529Z,16.09
2022-09-10T19:52:11.306Z,16.05
2022-09-10T19:54:40.037Z,16.03
2022-09-10T19:57:08.206Z,16.00
2022-09-10T19:59:36.271Z,15.97
2022-09-10T20:02:04.403Z,15.95
2022-09-10T20:04:33.296Z,15.93
2022-09-10T20:07:02.523Z,15.92
2022-09-10T20:09:30.524Z,15.86
2022-09-10T20:11:58.537Z,15.84
2022-09-10T20:14:28.918Z,15.79
2022-09-10T20:16:57.028Z,15.73
2022-09-10T20:19:25.086Z,15.68
2022-09-10T20:21:53.105Z,15.64
2022-09-10T20:24:21.417Z,15.59
2022-09-10T20:26:49.473Z,15.55
2022-09-10T20:29:19.422Z,15.49
2022-09-10T20:31:48.738Z,15.42
2022-09-10T20:34:20.404Z,15.38
2022-09-10T20:36:51.398Z,15.33
2022-09-10T20:39:25.494Z,15.31
2022-09-10T20:41:53.433Z,15.30
2022-09-10T20:44:22.238Z,15.30
2022-09-10T20:46:50.376Z,15.28
2022-09-10T20:49:18.526Z,15.27
2022-09-10T20:51:46.575Z,15.26
2022-09-10T20:54:17.916Z,15.25
2022-09-10T20:56:46.606Z,15.25
2022-09-10T20:59:16.608Z,15.25
2022-09-10T21:01:46.026Z,15.25
2022-09-10T21:04:14.635Z,15.26
2022-09-10T21:06:42.970Z,15.25
2022-09-10T21:09:12.127Z,15.23
2022-09-10T21:11:40.737Z,15.21
2022-09-10T21:14:11.494Z,15.19
2022-09-10T21:16:41.689Z,15.18
2022-09-10T21:19:12.177Z,15.16
2022-09-10T21:21:42.456Z,15.16
2022-09-10T21:24:16.838Z,15.15
2022-09-10T21:26:44.837Z,15.15
2022-09-10T21:29:17.016Z,15.14
2022-09-10T21:31:45.818Z,15.13
2022-09-10T21:34:15.009Z,15.14
2022-09-10T21:36:43.984Z,15.15
2022-09-10T21:39:17.554Z,15.15
2022-09-10T21:41:48.192Z,15.16
2022-09-10T21:44:22.244Z,15.15
2022-09-10T21:46:52.091Z,15.15
2022-09-10T21:49:20.524Z,15.13
2022-09-10T21:51:48.943Z,15.11
2022-09-10T21:54:20.723Z,15.11
2022-09-10T21:56:50.651Z,15.10
2022-09-10T21:59:20.588Z,15.11
2022-09-10T22:01:49.659Z,15.13
2022-09-10T22:04:22.378Z,15.14
2022-09-10T22:06:54.466Z,15.15
2022-09-10T22:09:22.650Z,15.15
2022-09-10T22:11:54.399Z,15.15
2022-09-10T22:14:24.478Z,15.15
2022-09-10T22:16:53.361Z,15.14
2022-09-10T22:19:24.657Z,15.14
2022-09-10T22:21:57.501Z,15.13
2022-09-10T22:24:26.470Z,15.12
2022-09-10T22:26:54.812Z,15.10
2022-09-10T22:29:23.094Z,15.04
2022-09-10T22:31:51.319Z,14.99
2022-09-10T22:34:20.800Z,14.97
2022-09-10T22:36:49.950Z,14.93
2022-09-10T22:39:22.413Z,14.90
2022-09-10T22:41:51.338Z,14.87
2022-09-10T22:44:20.346Z,14.87
2022-09-10T22:46:48.738Z,14.88
2022-09-10T22:49:18.171Z,14.89
2022-09-10T22:51:46.325Z,14.88
2022-09-10T22:54:17.400Z,14.90
2022-09-10T22:56:45.470Z,14.90
2022-09-10T22:59:15.423Z,14.91
2022-09-10T23:01:48.115Z,14.92
2022-09-10T23:04:16.349Z,14.91
2022-09-10T23:06:44.639Z,14.89
2022-09-10T23:09:17.906Z,14.83
2022-09-10T23:11:46.294Z,14.80
2022-09-10T23:14:19.301Z,14.79
2022-09-10T23:16:49.570Z,14.79
2022-09-10T23:19:23.559Z,14.79
2022-09-10T23:21:54.616Z,14.79
2022-09-10T23:24:24.723Z,14.80
2022-09-10T23:26:53.442Z,14.77
2022-09-10T23:29:23.139Z,14.76
2022-09-10T23:31:54.465Z,14.77
2022-09-10T23:34:22.882Z,14.80
2022-09-10T23:36:52.547Z,14.80
2022-09-10T23:39:22.584Z,14.80
2022-09-10T23:41:53.467Z,14.79
2022-09-10T23:44:21.593Z,14.80
2022-09-10T23:46:50.304Z,14.83
2022-09-10T23:49:18.333Z,14.85
2022-09-10T23:51:46.294Z,14.86
2022-09-10T23:54:14.496Z,14.89
2022-09-10T23:56:43.405Z,14.91
2022-09-10T23:59:11.670Z,14.94
